Norwegian Gem — C6VG8 — position and weather

sailwx.info

Track history (hours):
 
Tides and Currents Weather Stations Pressure Air Temp Water Temp Dewpoint Dewpoint Depression Visibility Wind Speed Wind Dir Waves Ship Positions

Norwegian Gem (Bahamas)

Last reported at 2018-Nov-11 00:33 UTC. Time now 2018-Nov-13 07:50 UTC.
Position N 40°23' W 073°45'.

Length 294 m; draft 8.6 m.

Type: Ship. MMSI: 309951000.

Date/timePositionNaut miles runAvg speedWind from/ knotsBaromVisibWave heightAir tempDewpointWater temp
2018-Nov-11 00:33N 40°23' W 073°45'0 9.7
2018-Nov-11 00:32N 40°23' W 073°45'5 9.6
2018-Nov-11 00:01N 40°27' W 073°50'5 9.3
2018-Nov-10 23:32N 40°29' W 073°55'612.0
2018-Nov-10 23:02N 40°32' W 074°01'715.1
2018-Nov-10 22:33N 40°40' W 074°03'611.6
2018-Nov-10 22:02N 40°45' W 074°01'1 1.6
2018-Nov-10 21:30N 40°46' W 073°60'0 0.0
2018-Nov-10 21:00N 40°46' W 073°60'0 0.0
2018-Nov-10 20:30N 40°46' W 073°60'0 0.0
2018-Nov-10 20:00N 40°46' W 073°60'0 0.0
2018-Nov-10 19:30N 40°46' W 073°60'0 0.0
2018-Nov-10 19:02N 40°46' W 073°60'0 0.0
2018-Nov-10 18:32N 40°46' W 073°60'0 0.0
2018-Nov-10 18:02N 40°46' W 073°60'0 0.0
2018-Nov-10 17:32N 40°46' W 073°60'0 0.0
2018-Nov-10 17:01N 40°46' W 073°60'0 0.0
2018-Nov-10 16:31N 40°46' W 073°60'0 0.0
2018-Nov-10 16:01N 40°46' W 073°60'0 0.0
2018-Nov-10 15:31N 40°46' W 073°60'0 0.0
2018-Nov-10 15:01N 40°46' W 073°60'0 0.0
2018-Nov-10 14:30N 40°46' W 073°60'0 0.0
2018-Nov-10 14:00N 40°46' W 073°60'0 0.0
2018-Nov-10 13:30N 40°46' W 073°60'0 0.0
2018-Nov-10 13:00N 40°46' W 073°60'0 0.1
2018-Nov-10 12:32N 40°46' W 073°60'1 2.9
2018-Nov-10 12:02N 40°45' W 074°01'510.3
2018-Nov-10 11:32N 40°40' W 074°03'511.0
2018-Nov-10 11:02N 40°34' W 074°02'612.4
2018-Nov-10 10:32N 40°30' W 073°56'5 9.5
2018-Nov-10 10:02N 40°28' W 073°51'3 5.3
2018-Nov-10 09:32N 40°26' W 073°48'3 6.9
2018-Nov-10 09:02N 40°23' W 073°47'5 9.4
2018-Nov-10 08:32N 40°18' W 073°46'5 9.7
2018-Nov-10 08:02N 40°14' W 073°45'1511.8
2018-Nov-10 06:47N 39°59' W 073°43'414.1
2018-Nov-10 06:31N 39°55' W 073°43'713.6
2018-Nov-10 06:02N 39°49' W 073°42'714.3
2018-Nov-10 05:32N 39°42' W 073°43'814.4
2018-Nov-10 05:01N 39°34' W 073°45'915.2
2018-Nov-10 04:25N 39°25' W 073°47'  
2018-Nov-04 02:33N 39°21' W 073°56'122.4
2018-Nov-04 02:30N 39°22' W 073°56'1022.1
2018-Nov-04 02:03N 39°32' W 073°54'122.1
2018-Nov-04 02:00N 39°33' W 073°54'1122.1
2018-Nov-04 01:30N 39°44' W 073°53'921.0
2018-Nov-04 01:03N 39°54' W 073°52'120.0
2018-Nov-04 01:00N 39°55' W 073°52'1019.7
2018-Nov-04 00:29N 40°05' W 073°50'1610.9
2018-Nov-03 23:01N 40°21' W 073°49'0 9.6
2018-Nov-03 22:59N 40°21' W 073°49'6 9.6
2018-Nov-03 22:21N 40°27' W 073°51'2011.0
2018-Nov-03 20:31N 40°46' W 074°00'0 0.7
2018-Nov-03 20:02N 40°46' W 073°60'0 0.0
2018-Nov-03 19:59N 40°46' W 073°60'0 0.0
2018-Nov-03 19:29N 40°46' W 073°60'0 0.0
2018-Nov-03 19:02N 40°46' W 073°60'0 0.0
2018-Nov-03 18:59N 40°46' W 073°60'0 0.0
2018-Nov-03 18:29N 40°46' W 073°60'0 0.0
2018-Nov-03 18:02N 40°46' W 073°60'0 0.0
2018-Nov-03 17:59N 40°46' W 073°60'0 0.0
2018-Nov-03 17:28N 40°46' W 073°60'0 0.0
2018-Nov-03 17:01N 40°46' W 073°60'0 0.0
2018-Nov-03 16:58N 40°46' W 073°60'0 0.0
2018-Nov-03 16:28N 40°46' W 073°60'0 0.0
2018-Nov-03 15:58N 40°46' W 073°60'0 0.0
2018-Nov-03 15:30N 40°46' W 073°60'0 0.0
2018-Nov-03 15:03N 40°46' W 073°60'0 0.0
2018-Nov-03 15:00N 40°46' W 073°60'0 0.0
2018-Nov-03 14:30N 40°46' W 073°60'0 0.0
2018-Nov-03 14:03N 40°46' W 073°60'0 0.0
2018-Nov-03 14:00N 40°46' W 073°60'0 0.0
2018-Nov-03 13:30N 40°46' W 073°60'0 0.0
2018-Nov-03 13:02N 40°46' W 073°60'0 0.0
2018-Nov-03 12:59N 40°46' W 073°60'0 0.0
2018-Nov-03 12:29N 40°46' W 073°60'0 0.0
2018-Nov-03 12:02N 40°46' W 073°60'0 0.0
2018-Nov-03 11:59N 40°46' W 073°60'0 0.1
2018-Nov-03 11:30N 40°46' W 073°60'1 1.7
2018-Nov-03 11:03N 40°45' W 074°01'0 4.8
2018-Nov-03 11:00N 40°45' W 074°01'510.6
2018-Nov-03 10:30N 40°40' W 074°03'614.0
2018-Nov-03 10:03N 40°34' W 074°02'115.3
2018-Nov-03 10:00N 40°33' W 074°02'612.4
2018-Nov-03 09:30N 40°29' W 073°55'4 9.3
2018-Nov-03 09:03N 40°28' W 073°50'0 9.4
2018-Nov-03 09:00N 40°27' W 073°49'4 7.4
2018-Nov-03 08:31N 40°24' W 073°47'5 8.9
2018-Nov-03 07:59N 40°20' W 073°46'2110.5
2018-Nov-03 05:57N 39°58' W 073°44'612.7
2018-Nov-03 05:30N 39°53' W 073°43'712.5
2018-Nov-03 04:59N 39°46' W 073°42'510.9
2018-Nov-03 04:30N 39°41' W 073°43'612.5
2018-Nov-03 04:04N 39°36' W 073°45'111.5
2018-Nov-03 04:00N 39°35' W 073°45'612.2
2018-Nov-03 03:30N 39°29' W 073°46'611.9
2018-Nov-03 03:00N 39°23' W 073°47'612.3
2018-Nov-03 02:31N 39°17' W 073°49'612.4
2018-Nov-03 02:02N 39°11' W 073°50'312.3
2018-Nov-03 01:49N 39°09' W 073°51'1513.2
2018-Nov-03 00:41N 38°54' W 073°55'1713.4
2018-Nov-02 23:27N 38°38' W 073°59'  
Track history (hours):
 
Tides and Currents Weather Stations Pressure Air Temp Water Temp Dewpoint Dewpoint Depression Visibility Wind Speed Wind Dir Waves Ship Positions

Norwegian Gem (Bahamas)

Last reported at 2018-Nov-11 00:33 UTC. Time now 2018-Nov-13 07:50 UTC.
Position N 40°23' W 073°45'.

Length 294 m; draft 8.6 m.

Type: Ship. MMSI: 309951000.

Date/timePositionNaut miles runAvg speedWind from/ knotsBaromVisibWave heightAir tempDewpointWater temp
2018-Nov-11 00:33N 40°23' W 073°45'0 9.7
2018-Nov-11 00:32N 40°23' W 073°45'5 9.6
2018-Nov-11 00:01N 40°27' W 073°50'5 9.3
2018-Nov-10 23:32N 40°29' W 073°55'612.0
2018-Nov-10 23:02N 40°32' W 074°01'715.1
2018-Nov-10 22:33N 40°40' W 074°03'611.6
2018-Nov-10 22:02N 40°45' W 074°01'1 1.6
2018-Nov-10 21:30N 40°46' W 073°60'0 0.0
2018-Nov-10 21:00N 40°46' W 073°60'0 0.0
2018-Nov-10 20:30N 40°46' W 073°60'0 0.0
2018-Nov-10 20:00N 40°46' W 073°60'0 0.0
2018-Nov-10 19:30N 40°46' W 073°60'0 0.0
2018-Nov-10 19:02N 40°46' W 073°60'0 0.0
2018-Nov-10 18:32N 40°46' W 073°60'0 0.0
2018-Nov-10 18:02N 40°46' W 073°60'0 0.0
2018-Nov-10 17:32N 40°46' W 073°60'0 0.0
2018-Nov-10 17:01N 40°46' W 073°60'0 0.0
2018-Nov-10 16:31N 40°46' W 073°60'0 0.0
2018-Nov-10 16:01N 40°46' W 073°60'0 0.0
2018-Nov-10 15:31N 40°46' W 073°60'0 0.0
2018-Nov-10 15:01N 40°46' W 073°60'0 0.0
2018-Nov-10 14:30N 40°46' W 073°60'0 0.0
2018-Nov-10 14:00N 40°46' W 073°60'0 0.0
2018-Nov-10 13:30N 40°46' W 073°60'0 0.0
2018-Nov-10 13:00N 40°46' W 073°60'0 0.1
2018-Nov-10 12:32N 40°46' W 073°60'1 2.9
2018-Nov-10 12:02N 40°45' W 074°01'510.3
2018-Nov-10 11:32N 40°40' W 074°03'511.0
2018-Nov-10 11:02N 40°34' W 074°02'612.4
2018-Nov-10 10:32N 40°30' W 073°56'5 9.5
2018-Nov-10 10:02N 40°28' W 073°51'3 5.3
2018-Nov-10 09:32N 40°26' W 073°48'3 6.9
2018-Nov-10 09:02N 40°23' W 073°47'5 9.4
2018-Nov-10 08:32N 40°18' W 073°46'5 9.7
2018-Nov-10 08:02N 40°14' W 073°45'1511.8
2018-Nov-10 06:47N 39°59' W 073°43'414.1
2018-Nov-10 06:31N 39°55' W 073°43'713.6
2018-Nov-10 06:02N 39°49' W 073°42'714.3
2018-Nov-10 05:32N 39°42' W 073°43'814.4
2018-Nov-10 05:01N 39°34' W 073°45'915.2
2018-Nov-10 04:25N 39°25' W 073°47'  
2018-Nov-04 02:33N 39°21' W 073°56'122.4
2018-Nov-04 02:30N 39°22' W 073°56'1022.1
2018-Nov-04 02:03N 39°32' W 073°54'122.1
2018-Nov-04 02:00N 39°33' W 073°54'1122.1
2018-Nov-04 01:30N 39°44' W 073°53'921.0
2018-Nov-04 01:03N 39°54' W 073°52'120.0
2018-Nov-04 01:00N 39°55' W 073°52'1019.7
2018-Nov-04 00:29N 40°05' W 073°50'1610.9
2018-Nov-03 23:01N 40°21' W 073°49'0 9.6
2018-Nov-03 22:59N 40°21' W 073°49'6 9.6
2018-Nov-03 22:21N 40°27' W 073°51'2011.0
2018-Nov-03 20:31N 40°46' W 074°00'0 0.7
2018-Nov-03 20:02N 40°46' W 073°60'0 0.0
2018-Nov-03 19:59N 40°46' W 073°60'0 0.0
2018-Nov-03 19:29N 40°46' W 073°60'0 0.0
2018-Nov-03 19:02N 40°46' W 073°60'0 0.0
2018-Nov-03 18:59N 40°46' W 073°60'0 0.0
2018-Nov-03 18:29N 40°46' W 073°60'0 0.0
2018-Nov-03 18:02N 40°46' W 073°60'0 0.0
2018-Nov-03 17:59N 40°46' W 073°60'0 0.0
2018-Nov-03 17:28N 40°46' W 073°60'0 0.0
2018-Nov-03 17:01N 40°46' W 073°60'0 0.0
2018-Nov-03 16:58N 40°46' W 073°60'0 0.0
2018-Nov-03 16:28N 40°46' W 073°60'0 0.0
2018-Nov-03 15:58N 40°46' W 073°60'0 0.0
2018-Nov-03 15:30N 40°46' W 073°60'0 0.0
2018-Nov-03 15:03N 40°46' W 073°60'0 0.0
2018-Nov-03 15:00N 40°46' W 073°60'0 0.0
2018-Nov-03 14:30N 40°46' W 073°60'0 0.0
2018-Nov-03 14:03N 40°46' W 073°60'0 0.0
2018-Nov-03 14:00N 40°46' W 073°60'0 0.0
2018-Nov-03 13:30N 40°46' W 073°60'0 0.0
2018-Nov-03 13:02N 40°46' W 073°60'0 0.0
2018-Nov-03 12:59N 40°46' W 073°60'0 0.0
2018-Nov-03 12:29N 40°46' W 073°60'0 0.0
2018-Nov-03 12:02N 40°46' W 073°60'0 0.0
2018-Nov-03 11:59N 40°46' W 073°60'0 0.1
2018-Nov-03 11:30N 40°46' W 073°60'1 1.7
2018-Nov-03 11:03N 40°45' W 074°01'0 4.8
2018-Nov-03 11:00N 40°45' W 074°01'510.6
2018-Nov-03 10:30N 40°40' W 074°03'614.0
2018-Nov-03 10:03N 40°34' W 074°02'115.3
2018-Nov-03 10:00N 40°33' W 074°02'612.4
2018-Nov-03 09:30N 40°29' W 073°55'4 9.3
2018-Nov-03 09:03N 40°28' W 073°50'0 9.4
2018-Nov-03 09:00N 40°27' W 073°49'4 7.4
2018-Nov-03 08:31N 40°24' W 073°47'5 8.9
2018-Nov-03 07:59N 40°20' W 073°46'2110.5
2018-Nov-03 05:57N 39°58' W 073°44'612.7
2018-Nov-03 05:30N 39°53' W 073°43'712.5
2018-Nov-03 04:59N 39°46' W 073°42'510.9
2018-Nov-03 04:30N 39°41' W 073°43'612.5
2018-Nov-03 04:04N 39°36' W 073°45'111.5
2018-Nov-03 04:00N 39°35' W 073°45'612.2
2018-Nov-03 03:30N 39°29' W 073°46'611.9
2018-Nov-03 03:00N 39°23' W 073°47'612.3
2018-Nov-03 02:31N 39°17' W 073°49'612.4
2018-Nov-03 02:02N 39°11' W 073°50'312.3
2018-Nov-03 01:49N 39°09' W 073°51'1513.2
2018-Nov-03 00:41N 38°54' W 073°55'1713.4
2018-Nov-02 23:27N 38°38' W 073°59'  

Dump ship's entire track history